Time;durP1;ratioP1;P1;durP2;ratioP2;P2;SDS_P1;SDS_P2;PMS_P1;PMS_P2;Temp;Humidity;BMP_temperature;BMP_pressure;BME280_temperature;BME280_humidity;BME280_pressure;Samples;Min_cycle;Max_cycle;Signal;HPM_P1;HPM_P2
2021/06/24 00:02:21;;;;;;;3.75;2.58;;;15.80;99.90;;;;;;6267696;28;20028;-80
2021/06/24 00:05:21;;;;;;;5.97;3.05;;;15.80;99.90;;;;;;6294443;28;20032;-80
2021/06/24 00:08:22;;;;;;;5.75;2.85;;;;;;;;;;6255331;28;20471;-80
2021/06/24 00:11:23;;;;;;;4.85;2.65;;;15.60;99.90;;;;;;6274180;28;20070;-81
2021/06/24 00:14:24;;;;;;;7.55;2.92;;;15.70;99.90;;;;;;6269913;28;20498;-81
2021/06/24 00:17:24;;;;;;;4.07;3.00;;;15.50;99.90;;;;;;6235880;28;20048;-80
2021/06/24 00:20:25;;;;;;;2.80;2.55;;;15.20;99.90;;;;;;6279852;28;20028;-81
2021/06/24 00:23:26;;;;;;;2.70;2.50;;;15.50;99.90;;;;;;6247422;28;20028;-81
2021/06/24 00:26:26;;;;;;;3.00;2.60;;;15.60;99.90;;;;;;6260530;28;20024;-80
2021/06/24 00:29:27;;;;;;;3.05;2.75;;;15.50;99.90;;;;;;6243575;28;20066;-82
2021/06/24 00:32:28;;;;;;;3.38;3.08;;;15.40;99.90;;;;;;6268385;28;20034;-83
2021/06/24 00:35:29;;;;;;;3.92;2.53;;;15.40;99.90;;;;;;6267434;28;20143;-81
2021/06/24 00:38:29;;;;;;;8.30;2.97;;;15.60;99.90;;;;;;6277581;28;20376;-80
2021/06/24 00:41:31;;;;;;;3.30;2.97;;;;;;;;;;6277199;28;20025;-80
2021/06/24 00:44:31;;;;;;;3.45;2.97;;;15.50;99.90;;;;;;6252152;28;20032;-82
2021/06/24 00:47:32;;;;;;;3.00;2.70;;;;;;;;;;6252165;28;20059;-81
2021/06/24 00:50:33;;;;;;;5.68;3.35;;;15.20;99.90;;;;;;6261863;28;20029;-81
2021/06/24 00:53:34;;;;;;;3.67;2.40;;;;;;;;;;6276339;28;20515;-80
2021/06/24 00:56:35;;;;;;;3.63;2.65;;;15.50;99.90;;;;;;6275120;28;20048;-80
2021/06/24 00:59:36;;;;;;;3.40;2.45;;;15.20;99.90;;;;;;6265243;28;20090;-81
2021/06/24 01:02:38;;;;;;;5.32;3.55;;;15.30;99.90;;;;;;6252266;28;20052;-80
2021/06/24 01:05:39;;;;;;;3.20;2.90;;;15.50;99.90;;;;;;6251532;28;20525;-80
2021/06/24 01:08:39;;;;;;;6.32;3.00;;;15.40;99.90;;;;;;6259911;28;20079;-81
2021/06/24 01:11:40;;;;;;;3.22;2.80;;;15.30;99.90;;;;;;6275884;28;20032;-82
2021/06/24 01:14:41;;;;;;;5.43;3.10;;;15.20;99.90;;;;;;6269417;28;20036;-80
2021/06/24 01:17:42;;;;;;;3.85;2.88;;;15.20;99.90;;;;;;6276366;28;20044;-80
2021/06/24 01:20:42;;;;;;;4.70;3.28;;;15.20;99.90;;;;;;6276332;28;20060;-81
2021/06/24 01:23:43;;;;;;;3.60;3.30;;;15.20;99.90;;;;;;6275457;28;20038;-79
2021/06/24 01:26:45;;;;;;;5.28;3.58;;;15.10;99.90;;;;;;6275930;28;20036;-81
2021/06/24 01:29:45;;;;;;;4.87;3.40;;;15.10;99.90;;;;;;6271549;28;20028;-80
2021/06/24 01:32:46;;;;;;;4.53;3.80;;;14.70;99.90;;;;;;6274738;28;20382;-80
2021/06/24 01:35:46;;;;;;;5.45;3.55;;;15.20;99.90;;;;;;6259025;28;20386;-82
2021/06/24 01:38:47;;;;;;;7.80;3.55;;;15.20;99.90;;;;;;6250410;28;20060;-80
2021/06/24 01:41:57;;;;;;;4.90;3.40;;;16.00;99.90;;;;;;6234110;28;20025;-85
2021/06/24 01:44:58;;;;;;;3.70;3.00;;;14.90;99.90;;;;;;6268647;28;20351;-84
2021/06/24 01:47:59;;;;;;;3.50;3.20;;;14.90;99.90;;;;;;6241136;28;20029;-81
2021/06/24 01:51:00;;;;;;;5.20;2.80;;;14.90;99.90;;;;;;6270171;28;20099;-80
2021/06/24 01:54:01;;;;;;;4.90;3.10;;;14.80;99.90;;;;;;6293599;28;20105;-80
2021/06/24 01:57:02;;;;;;;5.50;3.60;;;14.70;99.90;;;;;;6277282;28;20475;-83
2021/06/24 02:00:13;;;;;;;3.60;3.30;;;14.80;99.90;;;;;;6245095;28;20028;-81
2021/06/24 02:03:14;;;;;;;5.53;3.63;;;14.80;99.90;;;;;;6258454;28;20031;-80
2021/06/24 02:06:14;;;;;;;4.40;3.25;;;13.50;99.90;;;;;;6291554;28;20086;-81
2021/06/24 02:09:15;;;;;;;3.63;3.33;;;14.70;99.90;;;;;;6259556;28;20638;-82
2021/06/24 02:12:15;;;;;;;4.07;3.15;;;14.60;99.90;;;;;;6250025;28;20037;-80
2021/06/24 02:15:16;;;;;;;4.53;3.30;;;14.70;99.90;;;;;;6262894;28;20089;-80
2021/06/24 02:18:17;;;;;;;4.00;3.50;;;14.80;99.90;;;;;;6274997;28;20033;-81
2021/06/24 02:21:17;;;;;;;4.85;3.55;;;14.80;99.90;;;;;;6291691;28;20029;-81
2021/06/24 02:24:18;;;;;;;3.50;2.90;;;14.90;99.90;;;;;;6274636;28;20475;-85
2021/06/24 02:27:19;;;;;;;5.60;3.75;;;14.70;99.90;;;;;;6273017;28;20035;-81
2021/06/24 02:30:19;;;;;;;2.80;2.47;;;14.80;99.90;;;;;;6268349;28;20032;-80
2021/06/24 02:33:20;;;;;;;3.80;3.10;;;14.80;99.90;;;;;;6273979;28;20346;-82
2021/06/24 02:36:21;;;;;;;6.68;3.10;;;14.80;99.90;;;;;;6241108;28;20394;-81
2021/06/24 02:39:21;;;;;;;4.57;3.10;;;14.80;99.90;;;;;;6259274;28;20052;-84
2021/06/24 02:42:22;;;;;;;7.25;3.20;;;14.80;99.90;;;;;;6255516;28;20021;-81
2021/06/24 02:45:22;;;;;;;4.75;3.13;;;14.80;99.90;;;;;;6254735;28;20032;-81
2021/06/24 02:48:23;;;;;;;3.35;2.90;;;14.70;99.90;;;;;;6264183;28;20025;-81
2021/06/24 02:51:24;;;;;;;3.95;3.25;;;14.60;99.90;;;;;;6232861;28;20488;-81
2021/06/24 02:54:24;;;;;;;3.45;3.10;;;14.70;99.90;;;;;;6233490;28;20078;-81
2021/06/24 02:57:25;;;;;;;7.88;3.63;;;14.70;99.90;;;;;;6249463;28;20040;-82
2021/06/24 03:00:26;;;;;;;3.80;3.40;;;14.60;99.90;;;;;;6252562;28;20061;-83
2021/06/24 03:03:26;;;;;;;4.43;3.30;;;14.80;99.90;;;;;;6254472;28;20029;-80
2021/06/24 03:06:27;;;;;;;6.25;3.13;;;14.70;99.90;;;;;;6237539;28;20463;-81
2021/06/24 03:09:27;;;;;;;5.25;2.85;;;14.70;99.90;;;;;;6270866;28;20017;-81
2021/06/24 03:12:28;;;;;;;6.90;3.00;;;14.70;99.90;;;;;;6237659;28;20496;-80
2021/06/24 03:15:32;;;;;;;3.67;3.35;;;14.70;99.90;;;;;;6237584;28;20039;-85
2021/06/24 03:18:32;;;;;;;4.07;3.38;;;14.80;99.90;;;;;;6262956;28;20029;-80
2021/06/24 03:21:33;;;;;;;7.10;3.30;;;14.90;99.90;;;;;;6254276;28;20033;-79
2021/06/24 03:24:34;;;;;;;7.20;3.40;;;14.70;99.90;;;;;;6270699;28;20036;-80
2021/06/24 03:27:34;;;;;;;4.70;2.60;;;14.70;99.90;;;;;;6254440;28;20029;-80
2021/06/24 03:30:35;;;;;;;4.50;2.50;;;14.70;99.90;;;;;;6274500;28;20489;-80
2021/06/24 03:33:35;;;;;;;5.85;2.90;;;14.70;99.90;;;;;;6264747;28;20025;-80
2021/06/24 03:36:36;;;;;;;3.30;3.00;;;14.70;99.90;;;;;;6261714;28;20058;-85
2021/06/24 03:39:38;;;;;;;6.18;3.13;;;14.70;99.90;;;;;;6295159;28;20031;-80
2021/06/24 03:42:38;;;;;;;4.50;2.70;;;14.60;99.90;;;;;;6296520;28;20099;-80
2021/06/24 03:45:40;;;;;;;6.22;3.00;;;14.60;99.90;;;;;;6278243;28;20554;-80
2021/06/24 03:48:40;;;;;;;4.05;2.83;;;14.90;99.90;;;;;;6278412;28;20436;-80
2021/06/24 03:51:41;;;;;;;4.80;3.08;;;14.60;99.90;;;;;;6274375;28;20056;-82
2021/06/24 03:54:41;;;;;;;4.07;2.67;;;14.60;99.90;;;;;;6278486;28;20386;-81
2021/06/24 03:57:43;;;;;;;4.47;2.65;;;14.60;99.90;;;;;;6259072;28;20036;-81
2021/06/24 04:00:44;;;;;;;3.22;2.92;;;14.90;99.90;;;;;;6270119;28;20025;-81
2021/06/24 04:03:45;;;;;;;6.03;2.80;;;14.50;99.90;;;;;;6253746;28;20044;-81
2021/06/24 04:06:46;;;;;;;5.80;2.95;;;14.40;99.90;;;;;;6253372;28;20033;-81
2021/06/24 04:09:46;;;;;;;7.25;3.47;;;15.00;99.90;;;;;;6255516;28;20036;-81
2021/06/24 04:12:47;;;;;;;3.67;2.53;;;15.20;99.90;;;;;;6258706;28;20039;-82
2021/06/24 04:15:48;;;;;;;5.18;2.90;;;15.40;99.90;;;;;;6252727;28;20044;-81
2021/06/24 04:18:49;;;;;;;5.20;2.90;;;;;;;;;;6252889;28;20025;-80
2021/06/24 04:21:49;;;;;;;4.18;2.40;;;16.30;99.90;;;;;;6287198;28;20413;-80
2021/06/24 04:24:50;;;;;;;5.53;3.78;;;;;;;;;;6252289;28;20056;-84
2021/06/24 04:27:51;;;;;;;6.50;2.20;;;17.20;99.90;;;;;;6267501;28;20025;-81
2021/06/24 04:30:52;;;;;;;6.22;2.47;;;17.40;99.90;;;;;;6257542;28;20033;-80
2021/06/24 04:33:53;;;;;;;4.63;2.25;;;;;;;;;;6243334;28;20436;-80
2021/06/24 04:36:54;;;;;;;4.05;2.20;;;;;;;;;;6277757;28;20037;-80
2021/06/24 04:39:54;;;;;;;3.97;2.60;;;17.90;99.90;;;;;;6252271;28;20138;-81
2021/06/24 04:42:55;;;;;;;6.22;2.60;;;17.90;99.90;;;;;;6264016;28;20033;-81
2021/06/24 04:45:56;;;;;;;3.50;2.58;;;18.10;99.90;;;;;;6285052;28;20390;-85
2021/06/24 04:48:56;;;;;;;4.45;3.60;;;18.20;99.90;;;;;;6240656;28;20039;-83
2021/06/24 04:51:57;;;;;;;5.82;2.42;;;18.40;99.90;;;;;;6274996;28;20135;-84
2021/06/24 04:54:58;;;;;;;5.82;2.45;;;;;;;;;;6253647;28;20056;-86
2021/06/24 04:57:59;;;;;;;3.85;2.92;;;19.10;99.90;;;;;;6257135;28;20029;-84
2021/06/24 05:01:00;;;;;;;6.53;2.42;;;;;;;;;;6276671;28;20058;-88
2021/06/24 05:04:00;;;;;;;3.65;2.40;;;19.90;99.90;;;;;;6273367;28;20033;-84
2021/06/24 05:07:03;;;;;;;4.25;2.90;;;20.40;99.90;;;;;;6244925;28;20054;-84
2021/06/24 05:10:05;;;;;;;2.83;2.10;;;20.70;99.90;;;;;;6275419;28;20646;-80
2021/06/24 05:13:06;;;;;;;5.68;2.40;;;20.90;99.90;;;;;;6275170;28;20047;-83
2021/06/24 05:16:06;;;;;;;5.53;3.40;;;21.10;99.90;;;;;;6276203;28;20049;-86
2021/06/24 05:19:08;;;;;;;3.50;2.35;;;21.40;99.90;;;;;;6252209;28;20120;-83
2021/06/24 05:22:10;;;;;;;4.07;2.28;;;21.80;99.90;;;;;;6276245;28;20029;-84
2021/06/24 05:25:11;;;;;;;5.38;2.78;;;21.70;99.90;;;;;;6256775;28;20032;-81
2021/06/24 05:28:12;;;;;;;6.15;2.20;;;21.80;99.40;;;;;;6237216;28;20041;-82
2021/06/24 05:31:12;;;;;;;3.65;2.10;;;22.30;99.90;;;;;;6241149;28;20036;-81
2021/06/24 05:34:13;;;;;;;2.50;2.30;;;22.70;98.30;;;;;;6263274;28;20029;-81
2021/06/24 05:37:13;;;;;;;5.65;2.50;;;21.50;99.90;;;;;;6275852;28;20111;-85
2021/06/24 05:40:14;;;;;;;2.00;1.85;;;21.70;97.90;;;;;;6275114;28;20145;-80
2021/06/24 05:43:16;;;;;;;5.75;1.95;;;21.40;98.50;;;;;;6260665;28;20029;-81
2021/06/24 05:46:17;;;;;;;3.40;2.20;;;20.70;99.80;;;;;;6235471;28;20102;-84
2021/06/24 05:49:17;;;;;;;5.10;2.63;;;20.50;99.90;;;;;;6266736;28;20033;-81
2021/06/24 05:52:18;;;;;;;2.70;2.40;;;20.40;99.90;;;;;;6253938;28;20123;-81
2021/06/24 05:55:19;;;;;;;1.75;1.65;;;20.70;99.90;;;;;;6241847;28;20049;-81
2021/06/24 05:58:24;;;;;;;2.47;2.20;;;20.70;98.90;;;;;;6251523;28;20028;-82
2021/06/24 06:01:24;;;;;;;2.05;1.90;;;20.10;99.90;;;;;;6250485;28;20822;-82
2021/06/24 06:04:25;;;;;;;4.28;2.40;;;20.20;99.90;;;;;;6251254;28;20035;-81
2021/06/24 06:07:26;;;;;;;4.55;2.72;;;20.30;99.90;;;;;;6278524;28;20021;-84
2021/06/24 06:10:26;;;;;;;3.95;1.95;;;20.20;99.90;;;;;;6249556;28;20063;-82
2021/06/24 06:13:27;;;;;;;4.47;2.50;;;20.20;99.90;;;;;;6233907;28;20036;-81
2021/06/24 06:16:28;;;;;;;2.40;2.20;;;19.80;99.90;;;;;;6258399;28;20068;-84
2021/06/24 06:19:28;;;;;;;4.28;2.28;;;19.80;99.90;;;;;;6250739;28;20472;-81
2021/06/24 06:22:29;;;;;;;3.55;2.45;;;19.90;99.90;;;;;;6274689;28;20035;-81
2021/06/24 06:25:30;;;;;;;4.97;2.40;;;;;;;;;;6293293;28;20107;-80
2021/06/24 06:28:30;;;;;;;4.78;2.25;;;20.00;99.90;;;;;;6259148;28;20055;-80
2021/06/24 06:31:32;;;;;;;4.70;2.50;;;20.00;99.90;;;;;;6249524;28;20044;-81
2021/06/24 06:34:32;;;;;;;5.97;2.65;;;20.10;99.90;;;;;;6249408;28;20795;-80
2021/06/24 06:37:33;;;;;;;3.15;2.60;;;20.00;99.90;;;;;;6254434;28;20047;-80
2021/06/24 06:40:34;;;;;;;4.10;2.60;;;19.90;99.90;;;;;;6254614;28;20048;-82
2021/06/24 06:43:34;;;;;;;3.03;2.63;;;19.90;99.90;;;;;;6255201;28;20037;-80
2021/06/24 06:46:35;;;;;;;3.88;2.47;;;;;;;;;;6237759;28;20041;-80
2021/06/24 06:49:36;;;;;;;4.18;2.70;;;20.20;99.90;;;;;;6272790;28;20029;-83
2021/06/24 06:52:36;;;;;;;4.22;2.90;;;20.70;99.90;;;;;;6254676;28;20045;-83
2021/06/24 06:55:38;;;;;;;5.63;2.60;;;20.90;99.90;;;;;;6237942;28;20080;-80
2021/06/24 06:58:39;;;;;;;3.70;2.40;;;;;;;;;;6254689;28;20039;-84
2021/06/24 07:01:40;;;;;;;4.18;2.90;;;21.30;99.50;;;;;;6254396;28;20636;-80
2021/06/24 07:04:41;;;;;;;4.28;2.70;;;21.30;99.90;;;;;;6277249;28;20070;-80
2021/06/24 07:07:41;;;;;;;3.00;2.70;;;21.10;99.90;;;;;;6278880;28;20474;-83
2021/06/24 07:10:42;;;;;;;2.78;2.58;;;21.20;99.90;;;;;;6248389;28;20039;-80
2021/06/24 07:13:42;;;;;;;2.70;2.50;;;21.10;99.90;;;;;;6261519;28;20032;-80
2021/06/24 07:16:43;;;;;;;5.50;3.00;;;21.20;99.90;;;;;;6270964;28;20052;-80
2021/06/24 07:19:44;;;;;;;3.50;2.38;;;21.80;99.90;;;;;;6253962;28;20284;-80
2021/06/24 07:22:44;;;;;;;2.58;2.38;;;22.00;99.90;;;;;;6253660;28;20490;-80
2021/06/24 07:25:45;;;;;;;2.58;2.38;;;22.20;99.90;;;;;;6254258;28;20032;-84
2021/06/24 07:28:46;;;;;;;2.65;2.38;;;22.10;99.90;;;;;;6253643;28;20025;-80
2021/06/24 07:31:46;;;;;;;3.78;2.38;;;22.40;99.90;;;;;;6267495;28;20078;-80
2021/06/24 07:34:47;;;;;;;2.97;2.40;;;22.70;99.90;;;;;;6257604;28;20045;-80
2021/06/24 07:37:49;;;;;;;2.30;2.10;;;23.20;99.90;;;;;;6237223;28;20126;-80
2021/06/24 07:40:50;;;;;;;3.30;2.38;;;23.10;99.90;;;;;;6253781;28;20075;-83
2021/06/24 07:43:52;;;;;;;2.92;2.20;;;22.50;99.90;;;;;;6253690;28;20029;-80
2021/06/24 07:46:53;;;;;;;2.45;2.05;;;22.10;99.90;;;;;;6254204;28;20033;-82
2021/06/24 07:49:54;;;;;;;2.70;2.50;;;;;;;;;;6253472;28;20068;-82
2021/06/24 07:52:55;;;;;;;2.70;2.50;;;;;;;;;;6263805;28;20053;-79
2021/06/24 07:55:55;;;;;;;2.28;2.08;;;21.20;99.90;;;;;;6254599;28;20499;-85
2021/06/24 07:58:56;;;;;;;2.35;2.15;;;21.00;99.90;;;;;;6284644;28;20025;-87
2021/06/24 08:01:57;;;;;;;1.70;1.60;;;21.10;99.90;;;;;;6266721;28;20117;-86
2021/06/24 08:04:57;;;;;;;1.98;1.88;;;21.10;99.00;;;;;;6241659;28;20451;-87
2021/06/24 08:07:58;;;;;;;2.55;2.10;;;;;;;;;;6261561;28;20029;-85
2021/06/24 08:10:59;;;;;;;2.20;2.00;;;20.80;96.70;;;;;;6257826;28;20476;-86
2021/06/24 08:13:59;;;;;;;2.35;2.15;;;20.70;99.40;;;;;;6285565;28;20040;-86
2021/06/24 08:17:00;;;;;;;4.40;2.33;;;20.60;99.40;;;;;;6267599;28;20051;-84
2021/06/24 08:20:01;;;;;;;2.30;2.08;;;20.60;99.40;;;;;;6248444;28;20394;-86
2021/06/24 08:23:01;;;;;;;2.40;1.85;;;20.80;99.30;;;;;;6278128;28;20513;-85
2021/06/24 08:26:02;;;;;;;2.10;1.90;;;21.10;99.90;;;;;;6247336;28;20037;-84
2021/06/24 08:29:03;;;;;;;1.85;1.75;;;21.00;99.40;;;;;;6265154;28;20021;-85
2021/06/24 08:32:03;;;;;;;2.85;2.10;;;21.10;99.50;;;;;;6256783;28;20430;-85
2021/06/24 08:35:09;;;;;;;3.72;2.30;;;21.30;99.20;;;;;;6278330;28;20048;-84
2021/06/24 08:38:11;;;;;;;3.55;2.20;;;21.40;99.60;;;;;;6279796;28;20115;-87
2021/06/24 08:41:14;;;;;;;;;;;21.60;99.70;;;;;;6276948;28;20040;-84
2021/06/24 08:44:15;;;;;;;2.40;2.20;;;22.90;99.90;;;;;;6264741;28;19913;-85
2021/06/24 08:47:16;;;;;;;3.50;2.33;;;22.90;99.60;;;;;;6244625;28;20500;-85
2021/06/24 08:50:16;;;;;;;2.35;2.15;;;23.90;97.00;;;;;;6286638;28;20033;-86
2021/06/24 08:53:18;;;;;;;2.97;2.25;;;24.30;96.70;;;;;;6264605;28;20057;-86
2021/06/24 08:56:18;;;;;;;2.93;2.40;;;23.90;94.20;;;;;;6233059;28;20124;-85
2021/06/24 08:59:19;;;;;;;2.33;2.13;;;23.80;96.50;;;;;;6232811;28;20479;-87
2021/06/24 09:02:20;;;;;;;4.60;1.92;;;23.70;95.10;;;;;;6239433;28;20037;-87
2021/06/24 09:05:20;;;;;;;2.87;2.30;;;23.70;96.30;;;;;;6228894;28;20060;-86
2021/06/24 09:08:40;;;;;;;2.47;2.20;;;24.10;95.70;;;;;;6224563;28;20048;-85
2021/06/24 09:11:45;;;;;;;5.72;2.47;;;23.80;94.50;;;;;;6232365;28;20153;-84
2021/06/24 09:14:54;;;;;;;2.40;2.20;;;23.80;93.90;;;;;;6243416;28;20107;-85
2021/06/24 09:17:55;;;;;;;4.32;2.30;;;24.10;99.90;;;;;;6229771;28;20037;-87
2021/06/24 09:20:56;;;;;;;3.33;2.30;;;24.30;95.00;;;;;;6220242;28;20120;-87
2021/06/24 09:23:57;;;;;;;2.40;2.20;;;25.80;99.90;;;;;;6224177;28;20054;-85
2021/06/24 09:27:00;;;;;;;2.07;1.93;;;26.00;93.80;;;;;;6223135;28;20076;-85
2021/06/24 09:30:10;;;;;;;3.15;2.30;;;28.30;87.80;;;;;;6219631;28;20026;-89
2021/06/24 09:33:17;;;;;;;2.05;1.85;;;28.00;86.30;;;;;;6241440;28;20542;-89
2021/06/24 09:36:35;;;;;;;2.45;2.25;;;29.40;79.70;;;;;;6236645;28;20048;-86
2021/06/24 09:39:45;;;;;;;1.88;1.77;;;30.20;76.10;;;;;;6210314;28;20030;-86
2021/06/24 09:42:45;;;;;;;4.75;2.53;;;30.70;74.10;;;;;;6223863;28;20030;-87
2021/06/24 09:45:59;;;;;;;2.87;2.07;;;30.80;70.00;;;;;;6219672;28;20527;-88
2021/06/24 09:49:00;;;;;;;1.80;1.70;;;31.30;65.80;;;;;;6205785;28;20026;-85
2021/06/24 09:52:02;;;;;;;2.63;1.83;;;31.30;67.10;;;;;;6236445;28;20132;-84
2021/06/24 09:55:11;;;;;;;1.58;1.48;;;31.80;65.50;;;;;;6265531;28;20040;-86
2021/06/24 09:58:15;;;;;;;2.22;2.03;;;31.60;61.10;;;;;;6267266;28;20102;-86
2021/06/24 10:01:37;;;;;;;1.98;1.88;;;31.90;61.30;;;;;;6274452;28;20113;-83
2021/06/24 10:04:39;;;;;;;1.50;1.50;;;31.30;86.20;;;;;;6254455;28;20025;-85
2021/06/24 10:07:40;;;;;;;2.78;1.70;;;31.20;70.00;;;;;;6258328;28;20025;-84
2021/06/24 10:10:42;;;;;;;2.00;1.90;;;30.70;84.30;;;;;;6238529;28;20120;-84
2021/06/24 10:13:43;;;;;;;1.95;1.73;;;31.00;80.60;;;;;;6234046;28;20051;-84
2021/06/24 10:16:44;;;;;;;2.80;1.60;;;30.50;78.10;;;;;;6270857;28;20041;-86
2021/06/24 10:19:45;;;;;;;2.65;1.52;;;29.80;86.70;;;;;;6233555;28;20033;-84
2021/06/24 10:22:45;;;;;;;1.77;1.67;;;30.30;73.90;;;;;;6249344;28;20037;-84
2021/06/24 10:25:47;;;;;;;1.80;1.70;;;30.80;67.00;;;;;;6263179;28;20028;-84
2021/06/24 10:28:48;;;;;;;2.03;1.92;;;30.90;62.60;;;;;;6250326;28;20375;-85
2021/06/24 10:31:51;;;;;;;2.00;1.80;;;30.80;68.80;;;;;;6255249;28;20025;-88
2021/06/24 10:34:52;;;;;;;2.70;2.20;;;30.00;66.70;;;;;;6283806;28;20033;-87
2021/06/24 10:37:53;;;;;;;5.72;2.70;;;;;;;;;;6275019;28;20060;-87
2021/06/24 10:40:56;;;;;;;2.53;2.33;;;28.80;70.60;;;;;;6271855;28;20028;-86
2021/06/24 10:43:56;;;;;;;2.72;2.50;;;28.20;71.90;;;;;;6270698;28;20466;-86
2021/06/24 10:47:04;;;;;;;3.43;2.80;;;27.70;75.10;;;;;;6275401;28;20064;-87
2021/06/24 10:50:30;;;;;;;4.82;2.90;;;27.10;78.30;;;;;;6280432;28;20124;-87
2021/06/24 10:53:36;;;;;;;2.95;2.65;;;26.50;91.40;;;;;;6271171;28;20056;-87
2021/06/24 10:56:47;;;;;;;4.47;3.22;;;26.00;95.10;;;;;;6264186;28;20045;-87
2021/06/24 10:59:48;;;;;;;3.50;2.50;;;28.90;85.60;;;;;;6217918;28;20111;-83
2021/06/24 11:02:49;;;;;;;4.40;2.70;;;26.10;86.40;;;;;;6251318;28;20048;-85
2021/06/24 11:05:51;;;;;;;3.17;2.88;;;26.60;85.70;;;;;;6242025;28;20025;-79
2021/06/24 11:09:12;;;;;;;3.22;2.92;;;27.10;83.70;;;;;;6225071;28;20037;-82
2021/06/24 11:12:44;;;;;;;3.33;2.58;;;27.10;79.00;;;;;;6225350;28;20124;-80
2021/06/24 11:15:45;;;;;;;;;;;27.00;79.10;;;;;;6241897;28;20044;-80
2021/06/24 11:18:49;;;;;;;4.07;2.40;;;27.20;82.70;;;;;;6242910;28;20414;-77
2021/06/24 11:21:50;;;;;;;2.85;2.58;;;27.60;91.50;;;;;;6245491;28;20060;-81
2021/06/24 11:24:58;;;;;;;2.85;2.55;;;27.50;79.60;;;;;;6254043;28;20037;-78
2021/06/24 11:28:37;;;;;;;4.03;2.47;;;27.40;78.70;;;;;;6269032;28;20025;-82
2021/06/24 11:31:39;;;;;;;3.08;2.50;;;27.20;79.70;;;;;;6270562;28;20368;-77
2021/06/24 11:34:56;;;;;;;2.10;2.00;;;26.90;80.30;;;;;;6271192;28;20023;-81
2021/06/24 11:38:00;;;;;;;3.75;2.47;;;26.40;81.10;;;;;;6248744;28;20033;-80
2021/06/24 11:41:01;;;;;;;2.40;2.20;;;26.60;82.00;;;;;;6247921;28;20029;-81
2021/06/24 11:44:05;;;;;;;2.37;2.10;;;26.60;82.10;;;;;;6234303;28;20079;-80
2021/06/24 11:47:13;;;;;;;5.28;1.85;;;26.50;81.30;;;;;;6244920;28;20029;-79
2021/06/24 12:00:34;;;;;;;2.40;2.00;;;26.50;79.60;;;;;;6247091;28;20112;-77
2021/06/24 12:03:35;;;;;;;2.03;1.83;;;26.90;79.20;;;;;;6271237;28;20060;-76
2021/06/24 12:06:39;;;;;;;2.50;1.80;;;26.80;76.60;;;;;;6270191;28;20035;-76
2021/06/24 12:09:51;;;;;;;2.17;1.63;;;26.50;75.70;;;;;;6269710;28;20032;-76
2021/06/24 12:12:51;;;;;;;1.67;1.58;;;26.20;75.80;;;;;;6245653;28;20037;-76
2021/06/24 12:15:53;;;;;;;1.80;1.70;;;25.60;77.10;;;;;;6245749;28;20131;-76
2021/06/24 12:18:54;;;;;;;1.83;1.73;;;25.40;75.60;;;;;;6246248;28;20044;-76
2021/06/24 12:21:54;;;;;;;1.80;1.70;;;25.30;79.00;;;;;;6245554;28;20033;-77
2021/06/24 12:24:55;;;;;;;1.90;1.80;;;25.50;77.60;;;;;;6246286;28;20030;-77
2021/06/24 12:27:57;;;;;;;3.50;2.00;;;25.80;77.20;;;;;;6245667;28;20581;-76
2021/06/24 12:30:58;;;;;;;3.45;2.00;;;25.80;97.70;;;;;;6255416;28;20033;-77
2021/06/24 12:34:05;;;;;;;2.07;1.80;;;25.50;98.40;;;;;;6244697;28;20455;-76
2021/06/24 12:37:05;;;;;;;3.65;2.25;;;25.60;98.50;;;;;;6246113;28;20041;-76
2021/06/24 12:40:09;;;;;;;2.30;2.10;;;25.70;95.50;;;;;;6246465;28;20116;-75
2021/06/24 12:43:19;;;;;;;1.90;1.80;;;25.80;98.70;;;;;;6248575;28;20033;-75
2021/06/24 12:46:19;;;;;;;2.25;2.05;;;26.10;91.20;;;;;;6244852;28;20029;-76
2021/06/24 12:49:20;;;;;;;2.33;2.13;;;;;;;;;;6243299;28;20071;-75
2021/06/24 12:52:31;;;;;;;2.53;2.20;;;26.40;91.00;;;;;;6252806;28;20052;-76
2021/06/24 12:55:45;;;;;;;2.88;2.15;;;26.50;97.50;;;;;;6268865;28;20291;-75
2021/06/24 12:58:45;;;;;;;2.65;2.15;;;26.10;98.00;;;;;;6269433;28;20458;-76
2021/06/24 13:01:46;;;;;;;2.27;2.07;;;26.50;91.00;;;;;;6270196;28;20085;-76
2021/06/24 13:04:47;;;;;;;3.35;2.28;;;26.20;78.80;;;;;;6251153;28;20036;-78
2021/06/24 13:07:58;;;;;;;4.97;2.40;;;26.10;78.50;;;;;;6251284;28;20029;-81
2021/06/24 13:11:09;;;;;;;4.50;2.30;;;26.10;82.40;;;;;;6251427;28;20039;-82
2021/06/24 13:14:17;;;;;;;4.20;2.50;;;26.00;80.80;;;;;;6238870;28;20268;-83
2021/06/24 13:17:17;;;;;;;2.58;2.15;;;25.80;82.70;;;;;;6250855;28;20040;-79
2021/06/24 13:20:18;;;;;;;5.67;2.40;;;25.80;82.80;;;;;;6270033;28;20162;-79
2021/06/24 13:23:23;;;;;;;2.90;2.30;;;25.80;83.70;;;;;;6268837;28;20020;-78
2021/06/24 13:26:23;;;;;;;3.33;2.25;;;26.00;82.70;;;;;;6268965;28;20486;-84
2021/06/24 13:29:24;;;;;;;2.70;2.50;;;25.80;81.60;;;;;;6236740;28;20025;-78
2021/06/24 13:32:32;;;;;;;3.33;2.53;;;25.70;82.20;;;;;;6250566;28;20029;-78
2021/06/24 13:35:34;;;;;;;2.72;2.38;;;25.60;83.30;;;;;;6250578;28;20039;-79
2021/06/24 13:38:34;;;;;;;3.17;2.50;;;25.80;81.30;;;;;;6268630;28;20029;-78
2021/06/24 13:41:35;;;;;;;5.47;2.70;;;26.10;81.20;;;;;;6250741;28;20037;-78
2021/06/24 13:44:36;;;;;;;7.47;2.50;;;26.10;83.60;;;;;;6250524;28;20048;-78
2021/06/24 13:47:36;;;;;;;3.00;2.73;;;26.00;83.50;;;;;;6249163;28;20095;-78
2021/06/24 13:50:38;;;;;;;3.27;2.67;;;;;;;;;;6265335;28;20110;-77
2021/06/24 13:53:38;;;;;;;3.10;2.80;;;25.40;83.00;;;;;;6247387;28;20482;-81
2021/06/24 13:56:39;;;;;;;2.83;2.63;;;24.60;85.70;;;;;;6251187;28;20037;-82
2021/06/24 13:59:40;;;;;;;4.25;2.38;;;24.30;88.40;;;;;;6258920;28;20136;-81
2021/06/24 14:02:41;;;;;;;3.20;2.20;;;23.90;89.10;;;;;;6274030;28;20078;-86
2021/06/24 14:05:42;;;;;;;3.63;2.30;;;;;;;;;;6285508;28;20043;-79
2021/06/24 14:08:43;;;;;;;2.93;2.50;;;23.50;88.70;;;;;;6274875;28;20032;-79
2021/06/24 14:11:46;;;;;;;3.33;2.80;;;23.40;92.40;;;;;;6274850;28;20398;-79
2021/06/24 14:14:46;;;;;;;3.70;2.80;;;23.30;98.90;;;;;;6258077;28;20067;-79
2021/06/24 14:17:47;;;;;;;3.10;2.80;;;23.30;91.90;;;;;;6293117;28;20038;-78
2021/06/24 14:20:48;;;;;;;3.57;2.70;;;23.50;91.80;;;;;;6267102;28;20057;-79
2021/06/24 14:23:53;;;;;;;2.60;2.40;;;23.50;91.70;;;;;;6258270;28;20083;-79
2021/06/24 14:26:55;;;;;;;3.05;2.40;;;23.50;97.40;;;;;;6267557;28;20045;-87
2021/06/24 14:29:56;;;;;;;3.05;2.30;;;23.40;90.80;;;;;;6245313;28;20033;-84
2021/06/24 14:32:57;;;;;;;2.50;2.13;;;23.50;90.20;;;;;;6258076;28;20398;-83
2021/06/24 14:35:57;;;;;;;2.30;2.10;;;23.50;89.70;;;;;;6257178;28;20037;-89
2021/06/24 14:38:58;;;;;;;2.38;2.17;;;24.30;89.40;;;;;;6283068;28;20083;-88
2021/06/24 14:41:59;;;;;;;1.85;1.75;;;23.70;88.00;;;;;;6258501;28;20025;-86
2021/06/24 14:44:59;;;;;;;2.40;2.20;;;23.70;89.70;;;;;;6247869;28;20032;-88
2021/06/24 14:48:00;;;;;;;2.40;2.20;;;23.70;89.70;;;;;;6280060;28;20029;-85
2021/06/24 14:51:01;;;;;;;2.30;1.90;;;24.50;90.20;;;;;;6257619;28;20039;-85
2021/06/24 14:54:05;;;;;;;11.15;2.15;;;;;;;;;;6263755;28;20161;-88
2021/06/24 14:57:05;;;;;;;3.20;2.42;;;23.60;85.10;;;;;;6269885;28;20048;-86
2021/06/24 15:00:07;;;;;;;2.20;1.92;;;23.60;88.60;;;;;;6264181;28;20126;-85
2021/06/24 15:03:09;;;;;;;2.15;1.98;;;23.50;84.50;;;;;;6278450;28;20040;-86
2021/06/24 15:06:10;;;;;;;2.10;1.90;;;23.10;94.80;;;;;;6247100;28;20119;-85
2021/06/24 15:09:11;;;;;;;2.00;1.80;;;23.30;99.90;;;;;;6271311;28;20040;-88
2021/06/24 15:12:11;;;;;;;1.85;1.70;;;23.20;99.90;;;;;;6251880;28;20033;-89
2021/06/24 15:15:13;;;;;;;2.00;1.80;;;23.60;99.50;;;;;;6246258;28;20429;-83
2021/06/24 15:18:14;;;;;;;2.28;1.92;;;;;;;;;;6281944;28;20052;-89
2021/06/24 15:21:14;;;;;;;8.15;2.15;;;23.00;99.90;;;;;;6258900;28;20036;-88
2021/06/24 15:24:15;;;;;;;1.83;1.73;;;23.00;91.80;;;;;;6239546;28;20052;-88
2021/06/24 15:27:16;;;;;;;9.07;1.88;;;;;;;;;;6277143;28;20370;-88
2021/06/24 15:30:17;;;;;;;1.93;1.83;;;;;;;;;;6263887;28;20024;-87
2021/06/24 15:33:18;;;;;;;1.77;1.67;;;;;;;;;;6256424;28;20024;-86
2021/06/24 15:36:22;;;;;;;1.77;1.67;;;22.20;94.10;;;;;;6253154;28;20061;-86
2021/06/24 15:39:23;;;;;;;2.92;1.70;;;;;;;;;;6237816;28;20024;-86
2021/06/24 15:42:24;;;;;;;2.10;2.00;;;;;;;;;;6256694;28;20017;-89
2021/06/24 15:45:26;;;;;;;2.25;2.00;;;22.70;93.10;;;;;;6258584;28;20037;-88
2021/06/24 15:48:27;;;;;;;2.45;1.98;;;;;;;;;;6253818;28;20385;-87
2021/06/24 15:51:28;;;;;;;1.80;1.70;;;;;;;;;;6256955;28;20029;-88
2021/06/24 15:54:29;;;;;;;2.20;2.00;;;23.10;87.80;;;;;;6261032;28;20079;-86
2021/06/24 15:57:29;;;;;;;2.38;2.17;;;23.40;90.20;;;;;;6275768;28;20037;-86
2021/06/24 16:00:33;;;;;;;2.08;1.88;;;23.60;87.90;;;;;;6262498;28;20033;-90
2021/06/24 16:03:34;;;;;;;1.80;1.70;;;;;;;;;;6258284;28;20035;-85
2021/06/24 16:06:35;;;;;;;2.30;1.35;;;24.00;87.60;;;;;;6259985;28;20025;-82
2021/06/24 16:09:35;;;;;;;1.52;1.48;;;24.00;90.40;;;;;;6272434;28;20128;-85
2021/06/24 16:12:36;;;;;;;2.47;1.52;;;24.60;89.20;;;;;;6255150;28;20405;-86